createdAt,value
2018-02-07T00:01:33.536Z,25.73
2018-02-07T00:04:03.963Z,27.00
2018-02-07T00:06:33.049Z,27.47
2018-02-07T00:09:03.694Z,27.30
2018-02-07T00:11:33.132Z,28.80
2018-02-07T00:14:04.637Z,28.27
2018-02-07T00:16:38.026Z,26.33
2018-02-07T00:19:06.905Z,26.63
2018-02-07T00:21:35.743Z,27.20
2018-02-07T00:24:06.918Z,26.43
2018-02-07T00:26:35.756Z,27.20
2018-02-07T00:29:05.195Z,30.20
2018-02-07T00:31:34.911Z,28.97
2018-02-07T00:34:05.389Z,27.10
2018-02-07T00:36:34.520Z,27.77
2018-02-07T00:39:05.107Z,28.40
2018-02-07T00:41:35.317Z,28.30
2018-02-07T00:44:06.912Z,25.57
2018-02-07T00:46:36.312Z,26.00
2018-02-07T00:49:05.476Z,26.73
2018-02-07T00:51:34.612Z,27.03
2018-02-07T00:54:05.020Z,25.37
2018-02-07T00:56:34.776Z,28.67
2018-02-07T00:59:05.152Z,24.30
2018-02-07T01:01:34.744Z,28.67
2018-02-07T01:04:05.356Z,26.47
2018-02-07T01:06:34.180Z,26.37
2018-02-07T01:09:04.200Z,27.13
2018-02-07T01:11:33.388Z,26.90
2018-02-07T01:14:04.268Z,25.53
2018-02-07T01:16:33.100Z,25.43
2018-02-07T01:19:02.845Z,26.10
2018-02-07T01:21:31.635Z,27.83
2018-02-07T01:24:02.365Z,27.50
2018-02-07T01:26:31.611Z,27.13
2018-02-07T01:29:00.618Z,26.77
2018-02-07T01:31:29.563Z,26.60
2018-02-07T01:34:00.747Z,25.97
2018-02-07T01:36:29.765Z,27.87
2018-02-07T01:38:58.868Z,26.60
2018-02-07T01:41:28.047Z,27.37
2018-02-07T01:43:57.652Z,27.93
2018-02-07T01:46:28.160Z,26.10
2018-02-07T01:49:00.808Z,27.40
2018-02-07T01:51:30.329Z,27.80
2018-02-07T01:53:59.476Z,25.17
2018-02-07T01:56:28.591Z,25.60
2018-02-07T01:58:58.280Z,26.00
2018-02-07T02:01:27.264Z,27.10
2018-02-07T02:03:58.738Z,24.90
2018-02-07T02:06:27.568Z,27.20
2018-02-07T02:08:58.090Z,26.80
2018-02-07T02:11:26.888Z,27.60
2018-02-07T02:13:57.857Z,28.13
2018-02-07T02:16:26.884Z,26.57
2018-02-07T02:18:57.683Z,27.03
2018-02-07T02:21:28.320Z,29.40
2018-02-07T02:23:59.868Z,28.23
2018-02-07T02:26:28.732Z,27.43
2018-02-07T02:28:58.888Z,27.20
2018-02-07T02:31:27.660Z,27.37
2018-02-07T02:33:57.493Z,26.70
2018-02-07T02:36:41.324Z,26.37
2018-02-07T02:39:10.097Z,26.07
2018-02-07T02:41:38.864Z,27.83
2018-02-07T02:44:08.796Z,27.83
2018-02-07T02:46:37.580Z,26.73
2018-02-07T02:49:06.383Z,27.20
2018-02-07T02:51:35.677Z,25.50
2018-02-07T02:54:06.116Z,26.13
2018-02-07T02:56:34.924Z,25.80
2018-02-07T02:59:04.422Z,26.87
2018-02-07T03:01:34.552Z,25.40
2018-02-07T03:04:04.606Z,26.53
2018-02-07T03:06:33.393Z,25.00
2018-02-07T03:09:03.681Z,28.03
2018-02-07T03:11:32.988Z,25.20
2018-02-07T03:14:03.204Z,27.67
2018-02-07T03:16:32.044Z,25.90
2018-02-07T03:19:01.193Z,26.00
2018-02-07T03:21:30.148Z,25.87
2018-02-07T03:23:58.923Z,26.73
2018-02-07T03:26:28.121Z,26.40
2018-02-07T03:28:58.120Z,25.70
2018-02-07T03:31:27.269Z,26.80
2018-02-07T03:33:59.421Z,27.27
2018-02-07T03:36:28.353Z,27.37
2018-02-07T03:38:58.614Z,25.70
2018-02-07T03:41:27.402Z,28.43
2018-02-07T03:43:57.464Z,27.07
2018-02-07T03:46:27.640Z,27.47
2018-02-07T03:48:57.302Z,28.90
2018-02-07T03:51:26.101Z,27.00
2018-02-07T03:53:55.966Z,26.47
2018-02-07T03:56:24.733Z,26.77
2018-02-07T03:58:54.075Z,27.70
2018-02-07T04:01:23.237Z,27.40
2018-02-07T04:03:52.036Z,27.27
2018-02-07T04:06:21.097Z,28.20
2018-02-07T04:08:50.111Z,28.70
2018-02-07T04:11:19.364Z,28.10
2018-02-07T04:13:48.454Z,26.80
2018-02-07T04:16:17.229Z,28.50
2018-02-07T04:18:46.021Z,27.47
2018-02-07T04:21:15.100Z,28.17
2018-02-07T04:23:43.914Z,26.20
2018-02-07T04:26:13.688Z,26.50
2018-02-07T04:28:42.572Z,29.40
2018-02-07T04:31:11.648Z,26.70
2018-02-07T04:33:41.880Z,27.53
2018-02-07T04:36:40.931Z,28.27
2018-02-07T04:39:09.712Z,28.77
2018-02-07T04:41:39.598Z,27.17
2018-02-07T04:44:08.984Z,28.70
2018-02-07T04:46:38.130Z,29.30
2018-02-07T04:49:07.073Z,29.87
2018-02-07T04:51:35.877Z,28.87
2018-02-07T04:54:05.713Z,28.60
2018-02-07T04:56:34.768Z,28.70
2018-02-07T04:59:04.633Z,27.83
2018-02-07T05:01:33.493Z,29.07
2018-02-07T05:04:04.481Z,28.10
2018-02-07T05:06:34.352Z,27.70
2018-02-07T05:09:04.343Z,28.70
2018-02-07T05:11:33.556Z,27.80
2018-02-07T05:14:04.016Z,27.67
2018-02-07T05:16:32.845Z,30.30
2018-02-07T05:19:03.206Z,29.70
2018-02-07T05:21:32.032Z,31.10
2018-02-07T05:24:01.642Z,28.80
2018-02-07T05:26:31.837Z,29.70
2018-02-07T05:29:00.765Z,28.67
2018-02-07T05:31:30.403Z,29.00
2018-02-07T05:34:00.417Z,31.40
2018-02-07T05:36:29.473Z,29.67
2018-02-07T05:39:00.014Z,29.90
2018-02-07T05:41:28.784Z,29.17
2018-02-07T05:43:58.076Z,30.00
2018-02-07T05:46:27.214Z,30.77
2018-02-07T05:48:57.261Z,30.50
2018-02-07T05:51:26.194Z,30.80
2018-02-07T05:53:55.753Z,29.10
2018-02-07T05:56:24.544Z,32.77
2018-02-07T05:58:53.290Z,31.80
2018-02-07T06:01:22.364Z,29.63
2018-02-07T06:03:51.649Z,31.30
2018-02-07T06:06:20.416Z,30.30
2018-02-07T06:08:49.528Z,30.50
2018-02-07T06:11:18.324Z,31.33
2018-02-07T06:13:47.208Z,31.40
2018-02-07T06:16:15.963Z,29.20
2018-02-07T06:18:44.765Z,31.07
2018-02-07T06:21:14.115Z,28.87
2018-02-07T06:23:43.194Z,29.90
2018-02-07T06:26:12.778Z,29.17
2018-02-07T06:28:41.883Z,29.43
2018-02-07T06:31:10.666Z,30.23
2018-02-07T06:33:39.438Z,30.47
2018-02-07T06:36:08.705Z,31.57
2018-02-07T06:38:37.456Z,30.27
2018-02-07T06:41:06.268Z,33.00
2018-02-07T06:43:35.344Z,32.23
2018-02-07T06:46:05.701Z,30.33
2018-02-07T06:48:34.542Z,32.90
2018-02-07T06:51:04.712Z,29.03
2018-02-07T06:53:33.602Z,31.90
2018-02-07T06:56:03.682Z,30.80
2018-02-07T06:58:32.459Z,29.97
2018-02-07T07:01:02.376Z,30.30
2018-02-07T07:03:31.768Z,29.40
2018-02-07T07:06:01.187Z,28.43
2018-02-07T07:08:30.038Z,29.37
2018-02-07T07:10:59.833Z,28.90
2018-02-07T07:13:28.676Z,31.37
2018-02-07T07:15:57.701Z,33.57
2018-02-07T07:18:26.804Z,31.13
2018-02-07T07:20:56.722Z,31.07
2018-02-07T07:23:25.580Z,31.73
2018-02-07T07:25:54.730Z,30.53
2018-02-07T07:28:23.504Z,31.20
2018-02-07T07:30:52.296Z,31.80
2018-02-07T07:35:48.932Z,31.73
2018-02-07T07:38:17.697Z,30.53
2018-02-07T07:40:46.764Z,30.97
2018-02-07T07:43:15.877Z,30.70
2018-02-07T07:45:44.681Z,33.03
2018-02-07T07:48:13.741Z,32.30
2018-02-07T07:50:42.810Z,32.53
2018-02-07T07:53:11.924Z,31.37
2018-02-07T07:55:40.704Z,30.90
2018-02-07T07:58:13.062Z,30.53
2018-02-07T08:00:42.565Z,30.40
2018-02-07T08:03:11.561Z,28.37
2018-02-07T08:05:40.336Z,30.27
2018-02-07T08:08:09.268Z,29.00
2018-02-07T08:10:39.382Z,29.10
2018-02-07T08:13:08.616Z,30.77
2018-02-07T08:15:37.388Z,31.00
2018-02-07T08:18:06.651Z,29.70
2018-02-07T08:21:06.734Z,31.10
2018-02-07T08:23:35.966Z,30.80
2018-02-07T08:26:06.826Z,31.53
2018-02-07T08:28:35.585Z,30.47
2018-02-07T08:31:05.172Z,31.43
2018-02-07T08:33:34.005Z,30.60
2018-02-07T08:36:04.674Z,34.60
2018-02-07T08:38:34.764Z,33.37
2018-02-07T08:41:04.994Z,33.50
2018-02-07T08:43:33.772Z,33.23
2018-02-07T08:46:04.374Z,32.87
2018-02-07T08:48:33.221Z,30.77
2018-02-07T08:51:03.931Z,31.30
2018-02-07T08:53:33.023Z,30.07
2018-02-07T08:56:03.180Z,33.50
2018-02-07T08:58:31.960Z,30.40
2018-02-07T09:01:02.094Z,32.13
2018-02-07T09:03:30.856Z,33.17
2018-02-07T09:06:00.060Z,33.33
2018-02-07T09:08:29.387Z,31.83
2018-02-07T09:10:59.336Z,32.63
2018-02-07T09:13:28.226Z,34.50
2018-02-07T09:15:58.132Z,32.17
2018-02-07T09:18:29.501Z,35.33
2018-02-07T09:20:59.557Z,35.97
2018-02-07T09:23:28.476Z,35.70
2018-02-07T09:25:58.695Z,33.47
2018-02-07T09:28:27.878Z,38.63
2018-02-07T09:30:58.610Z,34.80
2018-02-07T09:33:27.404Z,33.93
2018-02-07T09:35:56.659Z,32.73
2018-02-07T09:38:25.484Z,32.17
2018-02-07T09:40:55.130Z,35.23
2018-02-07T09:43:25.252Z,33.90
2018-02-07T09:45:54.061Z,35.80
2018-02-07T09:48:23.133Z,31.57
2018-02-07T09:50:51.908Z,32.40
2018-02-07T09:53:20.761Z,34.37
2018-02-07T09:55:51.088Z,33.53
2018-02-07T09:58:21.213Z,34.07
2018-02-07T10:00:50.288Z,32.83
2018-02-07T10:03:19.971Z,34.43
2018-02-07T10:05:48.794Z,33.37
2018-02-07T10:08:17.616Z,32.97
2018-02-07T10:10:47.902Z,32.80
2018-02-07T10:13:16.919Z,33.77
2018-02-07T10:15:46.438Z,34.23
2018-02-07T10:18:15.793Z,34.40
2018-02-07T10:20:44.565Z,34.37
2018-02-07T10:23:14.748Z,33.17
2018-02-07T10:25:43.844Z,33.50
2018-02-07T10:28:12.879Z,33.00
2018-02-07T10:33:26.104Z,34.47
2018-02-07T10:35:55.405Z,35.00
2018-02-07T10:38:25.354Z,34.90
2018-02-07T10:40:56.308Z,33.87
2018-02-07T10:43:25.360Z,34.57
2018-02-07T10:45:56.992Z,35.90
2018-02-07T10:48:26.608Z,34.90
2018-02-07T10:50:56.393Z,31.43
2018-02-07T10:53:26.635Z,34.27
2018-02-07T10:56:00.340Z,33.80
2018-02-07T10:58:46.833Z,33.67
2018-02-07T11:01:32.954Z,33.47
2018-02-07T11:04:03.475Z,34.60
2018-02-07T11:06:32.280Z,34.20
2018-02-07T11:09:01.466Z,34.67
2018-02-07T11:11:30.668Z,35.07
2018-02-07T11:13:59.447Z,35.30
2018-02-07T11:16:28.769Z,37.00
2018-02-07T11:18:58.045Z,36.10
2018-02-07T11:21:26.849Z,34.37
2018-02-07T11:23:56.188Z,35.87
2018-02-07T11:26:25.433Z,36.27
2018-02-07T11:28:54.228Z,34.47
2018-02-07T11:31:23.009Z,35.70
2018-02-07T11:33:52.087Z,33.60
2018-02-07T11:36:21.160Z,34.00
2018-02-07T11:38:50.280Z,34.27
2018-02-07T11:41:19.928Z,36.10
2018-02-07T11:43:48.764Z,37.13
2018-02-07T11:46:17.552Z,35.20
2018-02-07T11:48:46.929Z,34.80
2018-02-07T11:51:16.167Z,35.97
2018-02-07T11:53:45.764Z,35.60
2018-02-07T11:56:18.165Z,37.60
2018-02-07T11:58:48.525Z,37.83
2018-02-07T12:03:48.884Z,42.70
2018-02-07T12:06:18.683Z,38.07
2018-02-07T12:08:48.904Z,38.50
2018-02-07T12:11:17.969Z,37.90
2018-02-07T12:13:46.813Z,38.57
2018-02-07T12:16:17.506Z,38.77
2018-02-07T12:18:46.283Z,37.30
2018-02-07T12:21:15.988Z,36.33
2018-02-07T12:23:45.072Z,35.90
2018-02-07T12:26:14.637Z,39.57
2018-02-07T12:28:43.476Z,38.93
2018-02-07T12:31:14.110Z,37.20
2018-02-07T12:33:42.919Z,35.60
2018-02-07T12:36:15.108Z,38.17
2018-02-07T12:38:44.243Z,38.80
2018-02-07T12:41:13.797Z,37.93
2018-02-07T12:43:42.711Z,38.27
2018-02-07T12:46:12.017Z,39.30
2018-02-07T12:48:40.858Z,37.77
2018-02-07T12:51:09.683Z,37.23
2018-02-07T12:53:38.791Z,39.20
2018-02-07T12:56:07.759Z,38.23
2018-02-07T12:58:36.649Z,43.50
2018-02-07T13:01:06.025Z,40.20
2018-02-07T13:03:34.795Z,38.20
2018-02-07T13:06:05.159Z,38.70
2018-02-07T13:08:35.572Z,39.27
2018-02-07T13:11:05.229Z,39.00
2018-02-07T13:13:34.021Z,37.60
2018-02-07T13:16:06.123Z,38.53
2018-02-07T13:18:35.365Z,38.50
2018-02-07T13:21:05.520Z,37.67
2018-02-07T13:23:34.648Z,35.30
2018-02-07T13:26:06.669Z,35.63
2018-02-07T13:28:35.454Z,38.17
2018-02-07T13:31:05.288Z,37.77
2018-02-07T13:33:34.065Z,41.70
2018-02-07T13:36:05.480Z,38.40
2018-02-07T13:38:35.482Z,39.10
2018-02-07T13:41:04.920Z,37.73
2018-02-07T13:43:33.741Z,37.57
2018-02-07T13:46:03.684Z,38.20
2018-02-07T13:48:32.525Z,40.40
2018-02-07T13:51:01.638Z,40.97
2018-02-07T13:53:30.739Z,38.23
2018-02-07T13:55:59.536Z,38.93
2018-02-07T13:58:29.480Z,39.40
2018-02-07T14:00:58.528Z,38.93
2018-02-07T14:03:27.317Z,40.23
2018-02-07T14:05:56.124Z,39.40
2018-02-07T14:08:25.236Z,40.53
2018-02-07T14:10:54.064Z,37.13
2018-02-07T14:13:25.115Z,39.37
2018-02-07T14:15:54.184Z,37.80
2018-02-07T14:18:23.276Z,37.50
2018-02-07T14:20:52.058Z,37.30
2018-02-07T14:23:21.204Z,37.47
2018-02-07T14:25:49.998Z,36.97
2018-02-07T14:28:18.892Z,39.63
2018-02-07T14:30:48.112Z,37.10
2018-02-07T14:33:18.207Z,40.93
2018-02-07T14:35:46.987Z,38.80
2018-02-07T14:38:18.052Z,39.93
2018-02-07T14:40:46.846Z,40.53
2018-02-07T14:43:16.688Z,37.93
2018-02-07T14:45:45.725Z,38.67
2018-02-07T14:48:15.646Z,38.70
2018-02-07T14:50:44.478Z,39.17
2018-02-07T14:53:14.139Z,38.90
2018-02-07T14:55:43.048Z,37.40
2018-02-07T14:58:12.961Z,38.50
2018-02-07T15:00:42.068Z,39.60
2018-02-07T15:03:11.009Z,40.30
2018-02-07T15:05:40.868Z,39.53
2018-02-07T15:08:10.012Z,40.07
2018-02-07T15:10:39.614Z,41.00
2018-02-07T15:13:08.520Z,40.63
2018-02-07T15:15:37.640Z,40.67
2018-02-07T15:18:06.440Z,42.07
2018-02-07T15:20:35.312Z,39.43
2018-02-07T15:23:05.700Z,41.90
2018-02-07T15:25:34.540Z,39.90
2018-02-07T15:28:04.037Z,40.97
2018-02-07T15:30:34.413Z,38.80
2018-02-07T15:33:05.568Z,38.83
2018-02-07T15:35:35.115Z,39.10
2018-02-07T15:38:05.124Z,40.27
2018-02-07T15:40:33.997Z,39.60
2018-02-07T15:43:04.250Z,41.87
2018-02-07T15:45:33.368Z,39.70
2018-02-07T15:48:03.965Z,38.93
2018-02-07T15:50:32.832Z,41.70
2018-02-07T15:53:02.630Z,40.37
2018-02-07T15:55:31.531Z,38.60
2018-02-07T15:58:00.910Z,40.67
2018-02-07T16:00:31.265Z,38.93
2018-02-07T16:03:00.049Z,38.87
2018-02-07T16:05:28.876Z,42.43
2018-02-07T16:07:58.113Z,40.90
2018-02-07T16:10:26.932Z,40.50
2018-02-07T16:12:55.704Z,41.20
2018-02-07T16:15:26.740Z,42.20
2018-02-07T16:17:56.353Z,42.73
2018-02-07T16:20:25.130Z,39.80
2018-02-07T16:22:54.307Z,44.30
2018-02-07T16:25:24.575Z,44.00
2018-02-07T16:27:53.409Z,40.43
2018-02-07T16:30:23.358Z,39.37
2018-02-07T16:32:52.137Z,40.90
2018-02-07T16:35:21.105Z,43.47
2018-02-07T16:37:50.177Z,40.60
2018-02-07T16:40:20.284Z,41.23
2018-02-07T16:42:49.536Z,42.07
2018-02-07T16:45:18.817Z,43.53
2018-02-07T16:47:47.604Z,42.20
2018-02-07T16:50:17.253Z,40.67
2018-02-07T16:52:46.468Z,41.57
2018-02-07T16:55:16.425Z,41.13
2018-02-07T16:57:45.226Z,40.80
2018-02-07T17:00:15.351Z,44.80
2018-02-07T17:02:44.372Z,41.87
2018-02-07T17:05:13.816Z,42.90
2018-02-07T17:07:46.107Z,42.23
2018-02-07T17:10:18.766Z,41.90
2018-02-07T17:12:47.693Z,43.03
2018-02-07T17:15:17.724Z,45.03
2018-02-07T17:17:46.548Z,40.80
2018-02-07T17:20:15.703Z,43.23
2018-02-07T17:22:44.744Z,43.40
2018-02-07T17:25:14.078Z,45.00
2018-02-07T17:27:43.565Z,41.53
2018-02-07T17:30:12.690Z,43.17
2018-02-07T17:32:41.482Z,41.53
2018-02-07T17:35:10.513Z,42.07
2018-02-07T17:37:40.603Z,41.40
2018-02-07T17:40:09.541Z,43.10
2018-02-07T17:42:38.392Z,42.33
2018-02-07T17:45:07.504Z,41.63
2018-02-07T17:47:36.307Z,44.53
2018-02-07T17:50:07.329Z,44.50
2018-02-07T17:52:37.441Z,42.10
2018-02-07T17:55:06.598Z,43.10
2018-02-07T17:57:35.693Z,40.33
2018-02-07T18:00:06.390Z,41.90
2018-02-07T18:02:35.264Z,40.27
2018-02-07T18:05:05.284Z,42.40
2018-02-07T18:07:35.396Z,44.17
2018-02-07T18:10:06.312Z,43.33
2018-02-07T18:12:35.836Z,44.00
2018-02-07T18:15:08.208Z,44.27
2018-02-07T18:17:37.009Z,42.17
2018-02-07T18:20:06.336Z,41.33
2018-02-07T18:22:35.449Z,42.47
2018-02-07T18:25:04.480Z,43.73
2018-02-07T18:27:33.315Z,44.00
2018-02-07T18:30:04.326Z,43.47
2018-02-07T18:32:33.242Z,43.87
2018-02-07T18:35:04.356Z,44.23
2018-02-07T18:37:34.849Z,48.10
2018-02-07T18:40:05.461Z,44.67
2018-02-07T18:42:34.273Z,44.97
2018-02-07T18:45:04.810Z,45.30
2018-02-07T18:47:33.620Z,43.87
2018-02-07T18:50:04.080Z,44.90
2018-02-07T18:52:34.288Z,46.57
2018-02-07T18:55:05.898Z,43.20
2018-02-07T18:57:35.922Z,45.53
2018-02-07T19:00:06.908Z,43.27
2018-02-07T19:02:35.734Z,43.60
2018-02-07T19:05:04.939Z,45.50
2018-02-07T19:07:34.908Z,47.20
2018-02-07T19:10:05.065Z,45.17
2018-02-07T19:12:34.203Z,42.30
2018-02-07T19:15:07.440Z,42.93
2018-02-07T19:17:37.072Z,41.90
2018-02-07T19:20:06.875Z,43.73
2018-02-07T19:22:36.072Z,44.30
2018-02-07T19:25:04.870Z,43.47
2018-02-07T19:27:34.504Z,44.23
2018-02-07T19:30:04.774Z,46.30
2018-02-07T19:35:10.315Z,45.00
2018-02-07T19:37:39.573Z,44.73
2018-02-07T19:40:08.398Z,44.63
2018-02-07T19:42:37.474Z,44.60
2018-02-07T19:45:07.199Z,45.53
2018-02-07T19:47:37.085Z,46.70
2018-02-07T19:50:07.469Z,45.30
2018-02-07T19:52:36.652Z,44.63
2018-02-07T19:55:05.870Z,45.33
2018-02-07T19:57:34.946Z,45.37
2018-02-07T20:00:05.663Z,43.50
2018-02-07T20:02:34.464Z,44.87
2018-02-07T20:05:20.150Z,43.70
2018-02-07T20:07:57.559Z,44.63
2018-02-07T20:10:33.232Z,44.97
2018-02-07T20:13:07.911Z,59.40
2018-02-07T20:15:38.440Z,46.00
2018-02-07T20:18:08.908Z,46.17
2018-02-07T20:20:37.900Z,45.47
2018-02-07T20:23:07.347Z,42.97
2018-02-07T20:25:36.366Z,46.13
2018-02-07T20:28:06.132Z,47.20
2018-02-07T20:30:35.251Z,44.60
2018-02-07T20:33:05.793Z,42.17
2018-02-07T20:35:34.656Z,43.67
2018-02-07T20:38:05.073Z,48.30
2018-02-07T20:40:33.879Z,43.47
2018-02-07T20:43:03.282Z,41.87
2018-02-07T20:45:32.814Z,46.90
2018-02-07T20:48:03.167Z,44.20
2018-02-07T20:50:32.048Z,48.10
2018-02-07T20:53:01.743Z,46.43
2018-02-07T20:55:30.648Z,44.63
2018-02-07T20:57:59.464Z,45.77
2018-02-07T21:00:29.208Z,46.80
2018-02-07T21:03:04.740Z,48.67
2018-02-07T21:05:41.188Z,46.77
2018-02-07T21:08:10.101Z,49.20
2018-02-07T21:10:39.173Z,49.30
2018-02-07T21:13:09.579Z,49.40
2018-02-07T21:15:39.196Z,49.20
2018-02-07T21:18:08.312Z,50.77
2018-02-07T21:20:37.125Z,50.27
2018-02-07T21:23:05.954Z,51.83
2018-02-07T21:25:35.864Z,53.97
2018-02-07T21:28:06.851Z,49.77
2018-02-07T21:30:35.620Z,50.60
2018-02-07T21:33:06.200Z,52.10
2018-02-07T21:35:34.977Z,51.47
2018-02-07T21:38:05.093Z,53.33
2018-02-07T21:40:34.300Z,50.37
2018-02-07T21:43:04.604Z,51.53
2018-02-07T21:45:33.560Z,48.40
2018-02-07T21:48:04.243Z,46.77
2018-02-07T21:50:34.333Z,49.53
2018-02-07T21:53:03.755Z,46.93
2018-02-07T21:55:32.820Z,47.20
2018-02-07T21:58:06.200Z,48.77
2018-02-07T22:00:35.390Z,48.60
2018-02-07T22:03:05.110Z,50.37
2018-02-07T22:05:33.880Z,49.30
2018-02-07T22:08:07.464Z,47.67
2018-02-07T22:10:38.126Z,51.60
2018-02-07T22:13:07.421Z,48.80
2018-02-07T22:15:36.284Z,47.40
2018-02-07T22:18:06.505Z,50.90
2018-02-07T22:20:35.509Z,49.33
2018-02-07T22:23:06.178Z,52.87
2018-02-07T22:25:35.496Z,50.33
2018-02-07T22:28:06.100Z,47.63
2018-02-07T22:30:34.872Z,48.20
2018-02-07T22:33:04.793Z,49.83
2018-02-07T22:35:33.916Z,48.40
2018-02-07T22:38:04.028Z,49.80
2018-02-07T22:40:33.259Z,49.07
2018-02-07T22:43:02.232Z,48.03
2018-02-07T22:45:31.124Z,47.40
2018-02-07T22:48:00.232Z,46.77
2018-02-07T22:50:29.983Z,47.40
2018-02-07T22:53:00.991Z,47.80
2018-02-07T22:55:31.617Z,49.50
2018-02-07T22:58:02.980Z,48.80
2018-02-07T23:00:33.579Z,47.33
2018-02-07T23:03:05.830Z,53.60
2018-02-07T23:05:36.050Z,51.20
2018-02-07T23:08:06.315Z,49.70
2018-02-07T23:10:35.318Z,49.17
2018-02-07T23:13:04.985Z,48.20
2018-02-07T23:15:34.359Z,48.97
2018-02-07T23:18:04.429Z,47.50
2018-02-07T23:20:33.795Z,46.70
2018-02-07T23:23:03.851Z,47.20
2018-02-07T23:25:33.070Z,48.20
2018-02-07T23:28:04.198Z,45.40
2018-02-07T23:30:33.746Z,46.80
2018-02-07T23:33:03.810Z,48.03
2018-02-07T23:35:33.373Z,48.60
2018-02-07T23:38:05.562Z,47.70
2018-02-07T23:40:35.337Z,46.80
2018-02-07T23:43:05.153Z,44.57
2018-02-07T23:45:34.082Z,47.30
2018-02-07T23:48:03.595Z,46.00
2018-02-07T23:50:33.853Z,46.20
2018-02-07T23:53:04.091Z,48.67
2018-02-07T23:55:35.549Z,48.50
2018-02-07T23:58:12.484Z,46.00
